createdAt,value
2022-07-29T00:02:26.132Z,57.80
2022-07-29T00:04:52.668Z,58.51
2022-07-29T00:07:19.282Z,57.81
2022-07-29T00:09:51.067Z,58.04
2022-07-29T00:12:26.325Z,58.12
2022-07-29T00:14:57.216Z,58.14
2022-07-29T00:17:24.964Z,58.52
2022-07-29T00:19:51.575Z,58.83
2022-07-29T00:22:18.087Z,58.60
2022-07-29T00:24:46.346Z,59.21
2022-07-29T00:27:12.718Z,59.21
2022-07-29T00:29:39.212Z,58.93
2022-07-29T00:32:05.926Z,59.18
2022-07-29T00:34:50.944Z,58.83
2022-07-29T00:37:17.546Z,59.71
2022-07-29T00:39:44.386Z,59.42
2022-07-29T00:42:10.960Z,59.21
2022-07-29T00:44:41.327Z,59.08
2022-07-29T00:47:09.032Z,59.48
2022-07-29T00:49:36.034Z,59.35
2022-07-29T00:52:03.823Z,59.14
2022-07-29T00:54:30.368Z,59.51
2022-07-29T00:56:59.922Z,58.92
2022-07-29T00:59:34.999Z,59.08
2022-07-29T01:02:05.593Z,59.65
2022-07-29T01:04:32.881Z,59.59
2022-07-29T01:07:01.486Z,59.28
2022-07-29T01:09:45.403Z,59.44
2022-07-29T01:12:18.806Z,59.88
2022-07-29T01:14:48.078Z,59.32
2022-07-29T01:17:34.959Z,59.53
2022-07-29T01:20:32.129Z,59.28
2022-07-29T01:23:18.848Z,59.28
2022-07-29T01:26:03.475Z,59.66
2022-07-29T01:28:44.642Z,59.32
2022-07-29T01:31:25.075Z,59.72
2022-07-29T01:33:58.720Z,59.99
2022-07-29T01:36:47.987Z,59.88
2022-07-29T01:39:26.236Z,60.24
2022-07-29T01:42:14.619Z,59.86
2022-07-29T01:44:46.550Z,60.27
2022-07-29T01:47:18.672Z,60.52
2022-07-29T01:49:52.097Z,59.97
2022-07-29T01:52:26.964Z,60.61
2022-07-29T01:54:58.326Z,60.40
2022-07-29T01:57:32.466Z,60.26
2022-07-29T02:00:01.792Z,60.74
2022-07-29T02:02:31.147Z,60.35
2022-07-29T02:04:58.800Z,60.40
2022-07-29T02:07:26.244Z,60.68
2022-07-29T02:09:55.023Z,60.00
2022-07-29T02:12:23.067Z,60.22
2022-07-29T02:14:52.525Z,60.61
2022-07-29T02:17:28.901Z,60.54
2022-07-29T02:20:02.451Z,60.24
2022-07-29T02:22:31.952Z,61.19
2022-07-29T02:24:59.460Z,61.23
2022-07-29T02:27:29.344Z,60.88
2022-07-29T02:29:59.068Z,61.50
2022-07-29T02:32:28.449Z,61.41
2022-07-29T02:34:56.826Z,61.45
2022-07-29T02:37:24.787Z,61.01
2022-07-29T02:39:54.773Z,60.45
2022-07-29T02:42:23.720Z,60.84
2022-07-29T02:44:51.261Z,60.93
2022-07-29T02:47:22.907Z,61.13
2022-07-29T02:50:10.326Z,61.38
2022-07-29T02:52:46.111Z,61.38
2022-07-29T02:55:58.308Z,61.28
2022-07-29T02:58:38.759Z,61.62
2022-07-29T03:01:23.907Z,61.62
2022-07-29T03:03:53.882Z,61.70
2022-07-29T03:06:28.768Z,61.83
2022-07-29T03:09:12.536Z,61.75
2022-07-29T03:11:46.365Z,61.50
2022-07-29T03:14:21.661Z,61.83
2022-07-29T03:16:49.359Z,61.82
2022-07-29T03:19:16.291Z,61.62
2022-07-29T03:21:42.873Z,61.60
2022-07-29T03:24:10.776Z,61.88
2022-07-29T03:26:37.740Z,62.61
2022-07-29T03:29:04.198Z,62.03
2022-07-29T03:31:30.675Z,61.97
2022-07-29T03:33:58.554Z,62.40
2022-07-29T03:36:25.733Z,62.63
2022-07-29T03:38:53.096Z,62.63
2022-07-29T03:41:22.450Z,62.94
2022-07-29T03:43:50.674Z,62.43
2022-07-29T03:46:18.809Z,62.46
2022-07-29T03:48:51.486Z,62.75
2022-07-29T03:51:18.111Z,62.95
2022-07-29T03:53:44.543Z,62.70
2022-07-29T03:56:12.905Z,63.31
2022-07-29T03:58:40.138Z,63.01
2022-07-29T04:01:06.877Z,62.44
2022-07-29T04:03:34.595Z,62.75
2022-07-29T04:06:06.948Z,62.76
2022-07-29T04:08:34.708Z,62.90
2022-07-29T04:11:02.429Z,63.07
2022-07-29T04:13:28.962Z,62.99
2022-07-29T04:15:55.419Z,63.21
2022-07-29T04:18:22.286Z,63.25
2022-07-29T04:20:48.918Z,63.04
2022-07-29T04:23:15.622Z,63.09
2022-07-29T04:25:43.084Z,63.46
2022-07-29T04:28:10.996Z,63.69
2022-07-29T04:30:38.338Z,63.99
2022-07-29T04:33:07.806Z,64.15
2022-07-29T04:35:47.061Z,63.82
2022-07-29T04:38:17.360Z,63.89
2022-07-29T04:40:44.001Z,63.78
2022-07-29T04:43:10.571Z,64.14
2022-07-29T04:45:39.175Z,63.88
2022-07-29T04:48:05.837Z,63.95
2022-07-29T04:50:32.824Z,64.09
2022-07-29T04:52:59.649Z,64.08
2022-07-29T04:55:26.392Z,64.10
2022-07-29T04:57:52.883Z,63.98
2022-07-29T05:00:19.420Z,63.79
2022-07-29T05:02:46.043Z,64.45
2022-07-29T05:05:12.670Z,64.16
2022-07-29T05:07:41.698Z,63.80
2022-07-29T05:10:09.237Z,63.56
2022-07-29T05:12:35.853Z,64.04
2022-07-29T05:15:02.341Z,63.68
2022-07-29T05:17:28.967Z,63.88
2022-07-29T05:19:55.608Z,64.01
2022-07-29T05:22:22.758Z,63.85
2022-07-29T05:24:49.225Z,64.00
2022-07-29T05:27:15.821Z,64.08
2022-07-29T05:29:44.153Z,63.55
2022-07-29T05:32:11.906Z,64.14
2022-07-29T05:34:38.429Z,64.31
2022-07-29T05:37:18.725Z,64.75
2022-07-29T05:39:48.960Z,64.34
2022-07-29T05:42:17.263Z,64.75
2022-07-29T05:44:43.824Z,64.94
2022-07-29T05:47:10.307Z,65.26
2022-07-29T05:49:36.897Z,64.49
2022-07-29T05:52:03.944Z,64.93
2022-07-29T05:54:30.673Z,64.75
2022-07-29T05:56:57.416Z,64.66
2022-07-29T05:59:29.838Z,65.01
2022-07-29T06:01:58.068Z,64.43
2022-07-29T06:04:25.211Z,63.59
2022-07-29T06:06:51.823Z,63.39
2022-07-29T06:09:18.338Z,63.66
2022-07-29T06:11:44.904Z,62.57
2022-07-29T06:14:11.451Z,62.88
2022-07-29T06:16:38.110Z,63.00
2022-07-29T06:19:05.321Z,63.00
2022-07-29T06:21:31.872Z,61.90
2022-07-29T06:23:58.458Z,61.30
2022-07-29T06:26:30.667Z,60.73
2022-07-29T06:28:58.531Z,61.18
2022-07-29T06:31:25.118Z,61.77
2022-07-29T06:33:51.730Z,61.98
2022-07-29T06:36:22.861Z,62.24
2022-07-29T06:38:52.124Z,62.45
2022-07-29T06:41:19.212Z,62.56
2022-07-29T06:43:52.450Z,62.65
2022-07-29T06:46:31.782Z,62.88
2022-07-29T06:48:58.556Z,62.98
2022-07-29T06:51:26.162Z,63.00
2022-07-29T06:53:58.391Z,63.36
2022-07-29T06:56:29.273Z,62.74
2022-07-29T06:58:57.207Z,63.18
2022-07-29T07:01:24.563Z,63.11
2022-07-29T07:03:51.173Z,63.57
2022-07-29T07:06:18.106Z,62.62
2022-07-29T07:08:44.764Z,62.65
2022-07-29T07:11:11.537Z,63.03
2022-07-29T07:13:38.074Z,62.84
2022-07-29T07:16:05.486Z,63.05
2022-07-29T07:18:32.128Z,62.86
2022-07-29T07:20:59.215Z,62.38
2022-07-29T07:23:25.903Z,61.56
2022-07-29T07:25:53.848Z,60.55
2022-07-29T07:28:24.762Z,61.14
2022-07-29T07:30:51.983Z,60.83
2022-07-29T07:33:18.639Z,60.53
2022-07-29T07:35:45.367Z,60.06
2022-07-29T07:38:12.049Z,60.12
2022-07-29T07:40:38.563Z,59.18
2022-07-29T07:43:05.253Z,59.65
2022-07-29T07:45:33.875Z,60.26
2022-07-29T07:48:00.930Z,59.54
2022-07-29T07:50:27.628Z,59.22
2022-07-29T07:52:59.041Z,58.84
2022-07-29T07:55:26.887Z,58.09
2022-07-29T07:57:54.059Z,59.87
2022-07-29T08:00:23.055Z,59.59
2022-07-29T08:02:51.154Z,60.19
2022-07-29T08:05:19.050Z,59.84
2022-07-29T08:07:47.570Z,59.83
2022-07-29T08:10:36.881Z,60.29
2022-07-29T08:13:07.997Z,59.56
2022-07-29T08:15:34.961Z,59.97
2022-07-29T08:18:06.563Z,60.64
2022-07-29T08:20:36.546Z,60.65
2022-07-29T08:23:03.850Z,60.50
2022-07-29T08:25:30.480Z,60.46
2022-07-29T08:28:00.089Z,60.22
2022-07-29T08:30:27.025Z,59.87
2022-07-29T08:32:55.247Z,59.89
2022-07-29T08:35:24.221Z,59.99
2022-07-29T08:37:51.650Z,60.51
2022-07-29T08:40:18.439Z,60.32
2022-07-29T08:42:45.267Z,59.29
2022-07-29T08:45:11.809Z,58.82
2022-07-29T08:47:43.069Z,57.18
2022-07-29T08:50:10.991Z,57.01
2022-07-29T08:52:39.510Z,57.20
2022-07-29T08:55:11.221Z,56.88
2022-07-29T08:57:40.056Z,55.67
2022-07-29T09:00:19.243Z,56.70
2022-07-29T09:02:52.768Z,56.33
2022-07-29T09:05:20.189Z,55.43
2022-07-29T09:07:48.905Z,54.18
2022-07-29T09:10:15.699Z,54.28
2022-07-29T09:12:42.671Z,53.83
2022-07-29T09:15:09.294Z,53.35
2022-07-29T09:17:50.275Z,53.97
2022-07-29T09:20:20.305Z,54.21
2022-07-29T09:22:51.739Z,53.60
2022-07-29T09:25:34.550Z,53.24
2022-07-29T09:28:11.776Z,53.31
2022-07-29T09:30:56.131Z,52.78
2022-07-29T09:33:24.309Z,53.20
2022-07-29T09:36:13.207Z,53.15
2022-07-29T09:38:39.834Z,53.85
2022-07-29T09:41:08.998Z,52.32
2022-07-29T09:43:35.777Z,52.55
2022-07-29T09:46:13.142Z,53.23
2022-07-29T09:48:40.455Z,52.71
2022-07-29T09:51:20.604Z,51.65
2022-07-29T09:53:48.829Z,52.36
2022-07-29T09:56:15.437Z,53.00
2022-07-29T09:58:41.882Z,52.26
2022-07-29T10:01:08.496Z,53.10
2022-07-29T10:03:52.204Z,53.43
2022-07-29T10:06:18.932Z,53.55
2022-07-29T10:08:45.621Z,53.17
2022-07-29T10:11:19.045Z,54.18
2022-07-29T10:13:48.012Z,54.95
2022-07-29T10:16:16.030Z,54.09
2022-07-29T10:18:44.813Z,54.60
2022-07-29T10:21:22.641Z,54.55
2022-07-29T10:24:14.929Z,54.16
2022-07-29T10:26:42.672Z,54.27
2022-07-29T10:29:09.078Z,54.98
2022-07-29T10:31:59.226Z,53.71
2022-07-29T10:34:50.604Z,52.42
2022-07-29T10:37:46.753Z,52.74
2022-07-29T10:40:45.781Z,50.45
2022-07-29T10:43:30.369Z,50.75
2022-07-29T10:46:00.945Z,51.26
2022-07-29T10:48:30.915Z,50.89
2022-07-29T10:51:05.142Z,49.81
2022-07-29T10:53:51.204Z,50.80
2022-07-29T10:56:38.123Z,50.05
2022-07-29T10:59:21.517Z,50.79
2022-07-29T11:04:45.229Z,50.84
2022-07-29T11:07:13.648Z,49.61
2022-07-29T11:09:41.937Z,48.97
2022-07-29T11:12:38.777Z,49.40
2022-07-29T11:15:09.424Z,49.61
2022-07-29T11:17:54.272Z,49.40
2022-07-29T11:20:40.572Z,49.38
2022-07-29T11:23:20.888Z,49.45
2022-07-29T11:26:23.401Z,49.60
2022-07-29T11:29:07.157Z,47.87
2022-07-29T11:31:39.437Z,48.30
2022-07-29T11:34:28.205Z,49.41
2022-07-29T11:37:14.323Z,47.86
2022-07-29T11:40:01.487Z,48.58
2022-07-29T11:45:43.218Z,48.02
2022-07-29T11:48:27.841Z,48.33
2022-07-29T11:50:58.637Z,46.70
2022-07-29T11:53:25.727Z,46.13
2022-07-29T11:55:58.358Z,47.08
2022-07-29T11:58:26.153Z,46.08
2022-07-29T12:00:55.674Z,47.89
2022-07-29T12:03:35.157Z,48.61
2022-07-29T12:06:04.094Z,48.04
2022-07-29T12:08:30.665Z,46.43
2022-07-29T12:10:57.103Z,46.33
2022-07-29T12:13:31.192Z,48.29
2022-07-29T12:16:05.315Z,48.79
2022-07-29T12:18:32.151Z,48.60
2022-07-29T12:21:05.688Z,47.38
2022-07-29T12:23:34.346Z,45.12
2022-07-29T12:26:05.492Z,44.34
2022-07-29T12:28:39.193Z,44.50
2022-07-29T12:31:05.888Z,46.38
2022-07-29T12:33:32.404Z,45.89
2022-07-29T12:36:11.764Z,45.66
2022-07-29T12:38:43.990Z,45.24
2022-07-29T12:41:11.519Z,46.47
2022-07-29T12:43:37.969Z,46.49
2022-07-29T12:46:15.778Z,46.93
2022-07-29T12:48:44.086Z,46.57
2022-07-29T12:51:12.739Z,46.75
2022-07-29T12:53:39.551Z,46.93
2022-07-29T12:56:20.559Z,47.02
2022-07-29T12:58:51.177Z,45.77
2022-07-29T13:01:20.336Z,46.39
2022-07-29T13:03:57.318Z,46.93
2022-07-29T13:06:41.767Z,47.18
2022-07-29T13:09:18.556Z,45.84
2022-07-29T13:11:48.838Z,46.26
2022-07-29T13:14:36.745Z,46.42
2022-07-29T13:17:14.675Z,45.75
2022-07-29T13:19:49.381Z,45.76
2022-07-29T13:22:18.312Z,46.47
2022-07-29T13:24:56.264Z,45.60
2022-07-29T13:27:25.266Z,45.18
2022-07-29T13:29:53.311Z,45.71
2022-07-29T13:32:27.693Z,45.44
2022-07-29T13:34:59.749Z,45.61
2022-07-29T13:37:27.247Z,44.85
2022-07-29T13:39:54.982Z,44.73
2022-07-29T13:42:25.691Z,45.97
2022-07-29T13:44:52.712Z,46.29
2022-07-29T13:47:20.759Z,45.63
2022-07-29T13:49:49.506Z,44.87
2022-07-29T13:52:16.665Z,44.25
2022-07-29T13:54:44.173Z,45.30
2022-07-29T13:57:11.998Z,44.91
2022-07-29T13:59:40.017Z,45.19
2022-07-29T14:02:06.790Z,44.86
2022-07-29T14:04:34.461Z,44.39
2022-07-29T14:07:03.560Z,44.23
2022-07-29T14:09:30.638Z,44.11
2022-07-29T14:12:08.534Z,45.33
2022-07-29T14:14:36.468Z,44.08
2022-07-29T14:17:04.179Z,44.54
2022-07-29T14:19:32.810Z,44.26
2022-07-29T14:21:59.698Z,45.11
2022-07-29T14:24:26.350Z,44.66
2022-07-29T14:26:52.805Z,43.67
2022-07-29T14:29:19.252Z,43.27
2022-07-29T14:31:45.777Z,43.48
2022-07-29T14:34:12.242Z,43.83
2022-07-29T14:36:38.718Z,43.26
2022-07-29T14:39:05.106Z,43.00
2022-07-29T14:41:31.609Z,41.98
2022-07-29T14:43:58.719Z,43.71
2022-07-29T14:46:25.195Z,42.88
2022-07-29T14:48:51.643Z,42.32
2022-07-29T14:51:18.327Z,41.73
2022-07-29T14:53:44.865Z,41.96
2022-07-29T14:56:35.409Z,40.75
2022-07-29T14:58:58.483Z,40.99
2022-07-29T15:01:25.730Z,39.96
2022-07-29T15:03:55.783Z,39.90
2022-07-29T15:06:26.131Z,39.44
2022-07-29T15:08:52.708Z,39.68
2022-07-29T15:11:19.072Z,39.04
2022-07-29T15:13:45.491Z,40.37
2022-07-29T15:16:11.956Z,39.38
2022-07-29T15:18:39.263Z,39.23
2022-07-29T15:21:07.793Z,38.32
2022-07-29T15:23:37.117Z,39.01
2022-07-29T15:26:04.756Z,37.45
2022-07-29T15:28:31.159Z,37.46
2022-07-29T15:30:57.836Z,36.96
2022-07-29T15:33:24.190Z,34.81
2022-07-29T15:35:50.595Z,33.26
2022-07-29T15:38:17.507Z,33.10
2022-07-29T15:40:44.597Z,33.08
2022-07-29T15:43:11.067Z,35.37
2022-07-29T15:45:40.546Z,37.45
2022-07-29T15:48:08.988Z,37.81
2022-07-29T15:50:35.784Z,38.31
2022-07-29T15:53:04.941Z,38.87
2022-07-29T15:55:31.357Z,39.79
2022-07-29T15:58:00.647Z,39.61
2022-07-29T16:00:27.370Z,39.71
2022-07-29T16:02:53.757Z,40.18
2022-07-29T16:05:20.222Z,40.22
2022-07-29T16:07:46.633Z,39.33
2022-07-29T16:10:13.115Z,40.21
2022-07-29T16:12:39.503Z,38.55
2022-07-29T16:15:09.887Z,36.48
2022-07-29T16:17:37.655Z,33.48
2022-07-29T16:20:06.035Z,34.54
2022-07-29T16:22:32.631Z,35.15
2022-07-29T16:24:59.099Z,37.18
2022-07-29T16:27:35.525Z,38.00
2022-07-29T16:30:07.967Z,38.19
2022-07-29T16:32:34.541Z,39.08
2022-07-29T16:35:02.672Z,37.90
2022-07-29T16:37:35.327Z,39.08
2022-07-29T16:40:02.528Z,39.26
2022-07-29T16:42:45.385Z,39.21
2022-07-29T16:45:13.141Z,39.37
2022-07-29T16:47:40.597Z,39.87
2022-07-29T16:50:07.830Z,40.85
2022-07-29T16:52:34.353Z,40.61
2022-07-29T16:55:00.792Z,40.44
2022-07-29T16:57:27.331Z,40.51
2022-07-29T16:59:53.855Z,41.31
2022-07-29T17:02:20.433Z,41.82
2022-07-29T17:04:47.103Z,41.63
2022-07-29T17:07:14.192Z,41.55
2022-07-29T17:09:41.076Z,41.29
2022-07-29T17:12:07.821Z,40.80
2022-07-29T17:14:34.256Z,40.83
2022-07-29T17:17:02.539Z,41.57
2022-07-29T17:19:31.540Z,41.28
2022-07-29T17:22:06.462Z,40.94
2022-07-29T17:24:35.675Z,42.21
2022-07-29T17:27:02.181Z,41.65
2022-07-29T17:29:28.762Z,42.58
2022-07-29T17:31:55.484Z,42.52
2022-07-29T17:34:21.887Z,42.47
2022-07-29T17:36:48.302Z,42.52
2022-07-29T17:39:14.779Z,42.41
2022-07-29T17:41:41.286Z,42.94
2022-07-29T17:44:10.588Z,43.27
2022-07-29T17:46:40.455Z,42.69
2022-07-29T17:49:07.355Z,43.53
2022-07-29T17:51:34.030Z,43.50
2022-07-29T17:54:00.460Z,43.23
2022-07-29T17:56:27.074Z,43.24
2022-07-29T17:58:54.122Z,44.11
2022-07-29T18:01:20.890Z,43.87
2022-07-29T18:03:47.485Z,44.09
2022-07-29T18:06:14.136Z,44.68
2022-07-29T18:08:43.092Z,44.94
2022-07-29T18:11:09.572Z,45.78
2022-07-29T18:13:41.690Z,46.28
2022-07-29T18:16:09.349Z,46.16
2022-07-29T18:18:35.924Z,47.01
2022-07-29T18:21:03.339Z,46.52
2022-07-29T18:23:30.140Z,46.72
2022-07-29T18:25:56.767Z,46.58
2022-07-29T18:28:23.308Z,46.90
2022-07-29T18:30:50.356Z,46.15
2022-07-29T18:33:22.102Z,45.90
2022-07-29T18:35:50.555Z,47.06
2022-07-29T18:38:17.613Z,47.38
2022-07-29T18:40:45.644Z,47.87
2022-07-29T18:43:12.915Z,48.20
2022-07-29T18:45:39.787Z,48.68
2022-07-29T18:48:08.388Z,49.18
2022-07-29T18:50:39.776Z,48.57
2022-07-29T18:53:06.215Z,49.28
2022-07-29T18:55:33.008Z,48.33
2022-07-29T18:58:02.000Z,49.41
2022-07-29T19:00:28.648Z,49.97
2022-07-29T19:02:58.256Z,49.89
2022-07-29T19:05:24.954Z,50.14
2022-07-29T19:07:51.649Z,51.07
2022-07-29T19:10:18.235Z,50.70
2022-07-29T19:12:44.724Z,51.27
2022-07-29T19:15:20.012Z,52.23
2022-07-29T19:17:48.031Z,52.61
2022-07-29T19:20:15.689Z,52.59
2022-07-29T19:25:10.995Z,52.79
2022-07-29T19:27:37.519Z,53.39
2022-07-29T19:30:09.315Z,53.47
2022-07-29T19:32:36.832Z,54.09
2022-07-29T19:35:28.295Z,55.16
2022-07-29T19:37:58.944Z,55.81
2022-07-29T19:40:26.438Z,55.93
2022-07-29T19:42:53.773Z,56.28
2022-07-29T19:45:21.666Z,56.73
2022-07-29T19:47:48.419Z,56.77
2022-07-29T19:50:16.370Z,57.35
2022-07-29T19:52:44.052Z,57.82
2022-07-29T19:55:10.576Z,57.88
2022-07-29T19:57:41.173Z,57.78
2022-07-29T20:00:11.245Z,58.87
2022-07-29T20:02:39.625Z,59.15
2022-07-29T20:05:07.093Z,59.96
2022-07-29T20:07:34.313Z,60.00
2022-07-29T20:10:04.274Z,60.31
2022-07-29T20:12:30.745Z,60.93
2022-07-29T20:14:57.852Z,61.39
2022-07-29T20:17:24.560Z,61.36
2022-07-29T20:19:51.806Z,61.94
2022-07-29T20:22:20.875Z,61.73
2022-07-29T20:24:50.939Z,62.22
2022-07-29T20:27:18.238Z,61.95
2022-07-29T20:29:44.732Z,62.08
2022-07-29T20:32:12.387Z,62.42
2022-07-29T20:34:42.472Z,63.06
2022-07-29T20:37:14.653Z,63.22
2022-07-29T20:39:42.682Z,63.84
2022-07-29T20:42:09.235Z,63.49
2022-07-29T20:44:36.749Z,63.78
2022-07-29T20:47:03.463Z,63.27
2022-07-29T20:49:30.163Z,64.02
2022-07-29T20:51:56.851Z,64.72
2022-07-29T20:54:23.330Z,64.47
2022-07-29T20:56:49.970Z,65.02
2022-07-29T20:59:17.727Z,65.37
2022-07-29T21:01:44.494Z,66.05
2022-07-29T21:04:11.037Z,66.39
2022-07-29T21:06:37.538Z,66.96
2022-07-29T21:09:04.191Z,66.69
2022-07-29T21:11:44.747Z,67.26
2022-07-29T21:14:30.904Z,68.10
2022-07-29T21:16:57.565Z,67.85
2022-07-29T21:19:24.167Z,68.25
2022-07-29T21:21:53.089Z,68.58
2022-07-29T21:24:19.715Z,68.67
2022-07-29T21:27:04.780Z,69.33
2022-07-29T21:29:32.777Z,69.15
2022-07-29T21:31:59.253Z,69.33
2022-07-29T21:34:27.951Z,69.77
2022-07-29T21:36:54.486Z,69.83
2022-07-29T21:39:21.012Z,69.64
2022-07-29T21:41:47.557Z,69.42
2022-07-29T21:44:13.984Z,69.18
2022-07-29T21:46:40.467Z,69.60
2022-07-29T21:49:07.055Z,69.53
2022-07-29T21:51:34.705Z,69.88
2022-07-29T21:54:01.184Z,70.05
2022-07-29T21:56:29.447Z,69.73
2022-07-29T21:58:57.940Z,69.72
2022-07-29T22:01:24.550Z,70.32
2022-07-29T22:03:51.004Z,69.90
2022-07-29T22:06:18.399Z,69.67
2022-07-29T22:08:45.630Z,70.75
2022-07-29T22:11:13.001Z,70.58
2022-07-29T22:13:41.792Z,70.90
2022-07-29T22:16:10.087Z,70.92
2022-07-29T22:18:36.536Z,71.33
2022-07-29T22:21:02.976Z,71.02
2022-07-29T22:23:29.592Z,70.97
2022-07-29T22:25:56.073Z,71.99
2022-07-29T22:28:22.653Z,72.28
2022-07-29T22:30:49.210Z,71.91
2022-07-29T22:33:17.881Z,72.26
2022-07-29T22:35:44.805Z,72.19
2022-07-29T22:38:11.287Z,72.93
2022-07-29T22:40:37.737Z,73.05
2022-07-29T22:43:04.997Z,72.54
2022-07-29T22:45:31.518Z,71.88
2022-07-29T22:47:59.045Z,72.33
2022-07-29T22:50:26.422Z,71.92
2022-07-29T22:52:52.895Z,72.24
2022-07-29T22:55:19.383Z,72.60
2022-07-29T22:57:45.861Z,73.08
2022-07-29T23:00:13.517Z,72.92
2022-07-29T23:02:41.342Z,73.02
2022-07-29T23:05:08.918Z,72.73
2022-07-29T23:07:35.367Z,72.97
2022-07-29T23:10:02.034Z,74.02
2022-07-29T23:12:28.439Z,73.44
2022-07-29T23:14:54.861Z,73.82
2022-07-29T23:17:21.306Z,73.70
2022-07-29T23:19:47.810Z,73.08
2022-07-29T23:22:14.300Z,72.91
2022-07-29T23:24:41.397Z,72.18
2022-07-29T23:27:08.600Z,72.75
2022-07-29T23:29:36.747Z,72.31
2022-07-29T23:32:03.772Z,71.91
2022-07-29T23:34:30.206Z,71.91
2022-07-29T23:36:56.653Z,71.71
2022-07-29T23:39:23.139Z,71.08
2022-07-29T23:41:49.663Z,71.24
2022-07-29T23:44:16.134Z,71.53
2022-07-29T23:46:43.099Z,71.63
2022-07-29T23:49:09.607Z,71.27
2022-07-29T23:51:36.079Z,71.42
2022-07-29T23:54:02.659Z,71.26
2022-07-29T23:56:29.180Z,71.81
2022-07-29T23:58:55.826Z,71.65
